<?xml version="1.0" encoding="UTF-8" standalone="no" ?>
<gpx xmlns="http://www.topografix.com/GPX/1/1" xmlns:xsi="http://www.w3.org/2001/XMLSchema-instance" xsi:schemaLocation="http://www.topografix.com/GPX/1/1 http://www.topografix.com/GPX/1/1/gpx.xsd" version="1.1" creator="VisuGPX - https://www.visugpx.com">
  <metadata>
    <name>La Tête de Nayemont et le Champ de Roches</name>
  </metadata>
  <wpt lat="48.14819" lon="6.86452">
    <ele>682</ele>
    <name><![CDATA[Parking au hameau de la Querelle face à l'auberge]]></name>
  </wpt>
  <wpt lat="48.14448" lon="6.86886">
    <ele>696</ele>
    <name><![CDATA[Le Grain]]></name>
  </wpt>
  <wpt lat="48.14241" lon="6.87739">
    <ele>707</ele>
    <name><![CDATA[Chemin vers le mirador]]></name>
  </wpt>
  <wpt lat="48.13923" lon="6.8756">
    <ele>762</ele>
    <name><![CDATA[Stèle et table d'orientation]]></name>
  </wpt>
  <wpt lat="48.13475" lon="6.88171">
    <ele>763</ele>
    <name><![CDATA[Vers Clair Sapin]]></name>
  </wpt>
  <wpt lat="48.12709" lon="6.8943">
    <ele>844</ele>
    <name><![CDATA[Au pied de Nayemont]]></name>
  </wpt>
  <wpt lat="48.11804" lon="6.89566">
    <ele>853</ele>
    <name><![CDATA[Carrefour]]></name>
  </wpt>
  <wpt lat="48.12019" lon="6.88589">
    <ele>813</ele>
    <name><![CDATA[Route forestière]]></name>
  </wpt>
  <wpt lat="48.1273" lon="6.88226">
    <ele>790</ele>
    <name><![CDATA[Chemin descendant à gauche]]></name>
  </wpt>
  <wpt lat="48.1292" lon="6.8709">
    <ele>708</ele>
    <name><![CDATA[Sentier en face]]></name>
  </wpt>
  <wpt lat="48.12889" lon="6.85982">
    <ele>727</ele>
    <name><![CDATA[Parking du Champ de Roches - Aire de pique-nique]]></name>
  </wpt>
  <wpt lat="48.13088" lon="6.85795">
    <ele>732</ele>
    <name><![CDATA[Bout du site, bifurcation, à droite]]></name>
  </wpt>
  <wpt lat="48.13013" lon="6.86153">
    <ele>739</ele>
    <name><![CDATA[Croisement en T]]></name>
  </wpt>
  <wpt lat="48.13512" lon="6.86086">
    <ele>707</ele>
    <name><![CDATA[Bulmont]]></name>
  </wpt>
  <wpt lat="48.14822" lon="6.86455">
    <ele>682</ele>
    <name><![CDATA[Parking au hameau de la Querelle face à l'auberge]]></name>
  </wpt>
  <trk>
    <name><![CDATA[La Tête de Nayemont et le Champ de Roches]]></name>
    <trkseg>
      <trkpt lat="48.14819" lon="6.86452">
        <ele>682</ele>
        <time>2018-08-06T07:31:44+02:00</time>
      </trkpt>
      <trkpt lat="48.14793" lon="6.86451">
        <ele>682</ele>
        <time>2018-08-06T08:17:18+02:00</time>
      </trkpt>
      <trkpt lat="48.14782" lon="6.86485">
        <ele>682</ele>
        <time>2018-08-06T08:17:27+02:00</time>
      </trkpt>
      <trkpt lat="48.14763" lon="6.86515">
        <ele>682</ele>
        <time>2018-08-06T08:17:35+02:00</time>
      </trkpt>
      <trkpt lat="48.14749" lon="6.86537">
        <ele>682</ele>
        <time>2018-08-06T08:17:43+02:00</time>
      </trkpt>
      <trkpt lat="48.14729" lon="6.86566">
        <ele>683</ele>
        <time>2018-08-06T08:17:50+02:00</time>
      </trkpt>
      <trkpt lat="48.14711" lon="6.86591">
        <ele>683</ele>
        <time>2018-08-06T08:17:59+02:00</time>
      </trkpt>
      <trkpt lat="48.14694" lon="6.86613">
        <ele>683</ele>
        <time>2018-08-06T08:18:07+02:00</time>
      </trkpt>
      <trkpt lat="48.14674" lon="6.86633">
        <ele>684</ele>
        <time>2018-08-06T08:18:24+02:00</time>
      </trkpt>
      <trkpt lat="48.14653" lon="6.86642">
        <ele>684</ele>
        <time>2018-08-06T08:18:30+02:00</time>
      </trkpt>
      <trkpt lat="48.14631" lon="6.86658">
        <ele>685</ele>
        <time>2018-08-06T08:18:38+02:00</time>
      </trkpt>
      <trkpt lat="48.14606" lon="6.86665">
        <ele>685</ele>
        <time>2018-08-06T08:18:46+02:00</time>
      </trkpt>
      <trkpt lat="48.14594" lon="6.86666">
        <ele>686</ele>
        <time>2018-08-06T08:20:58+02:00</time>
      </trkpt>
      <trkpt lat="48.14579" lon="6.86672">
        <ele>686</ele>
        <time>2018-08-06T08:21:06+02:00</time>
      </trkpt>
      <trkpt lat="48.14559" lon="6.86684">
        <ele>686</ele>
        <time>2018-08-06T08:21:24+02:00</time>
      </trkpt>
      <trkpt lat="48.14543" lon="6.86699">
        <ele>687</ele>
        <time>2018-08-06T08:21:38+02:00</time>
      </trkpt>
      <trkpt lat="48.14526" lon="6.86715">
        <ele>687</ele>
        <time>2018-08-06T08:21:54+02:00</time>
      </trkpt>
      <trkpt lat="48.14511" lon="6.86731">
        <ele>688</ele>
        <time>2018-08-06T08:22:11+02:00</time>
      </trkpt>
      <trkpt lat="48.14494" lon="6.86747">
        <ele>689</ele>
        <time>2018-08-06T08:22:26+02:00</time>
      </trkpt>
      <trkpt lat="48.14478" lon="6.86762">
        <ele>691</ele>
        <time>2018-08-06T08:22:41+02:00</time>
      </trkpt>
      <trkpt lat="48.14466" lon="6.86783">
        <ele>693</ele>
        <time>2018-08-06T08:22:58+02:00</time>
      </trkpt>
      <trkpt lat="48.14458" lon="6.86809">
        <ele>695</ele>
        <time>2018-08-06T08:23:15+02:00</time>
      </trkpt>
      <trkpt lat="48.14453" lon="6.86836">
        <ele>697</ele>
        <time>2018-08-06T08:23:33+02:00</time>
      </trkpt>
      <trkpt lat="48.14448" lon="6.86863">
        <ele>697</ele>
        <time>2018-08-06T08:23:49+02:00</time>
      </trkpt>
      <trkpt lat="48.14448" lon="6.86886">
        <ele>696</ele>
        <time>2018-08-06T08:23:56+02:00</time>
      </trkpt>
      <trkpt lat="48.14448" lon="6.86929">
        <ele>696</ele>
        <time>2018-08-06T08:24:15+02:00</time>
      </trkpt>
      <trkpt lat="48.1445" lon="6.86975">
        <ele>695</ele>
        <time>2018-08-06T08:24:30+02:00</time>
      </trkpt>
      <trkpt lat="48.1445" lon="6.87026">
        <ele>694</ele>
        <time>2018-08-06T08:24:47+02:00</time>
      </trkpt>
      <trkpt lat="48.14442" lon="6.87073">
        <ele>694</ele>
        <time>2018-08-06T08:25:03+02:00</time>
      </trkpt>
      <trkpt lat="48.14434" lon="6.87114">
        <ele>694</ele>
        <time>2018-08-06T08:25:21+02:00</time>
      </trkpt>
      <trkpt lat="48.14425" lon="6.87162">
        <ele>693</ele>
        <time>2018-08-06T08:25:39+02:00</time>
      </trkpt>
      <trkpt lat="48.14411" lon="6.87198">
        <ele>694</ele>
        <time>2018-08-06T08:26:11+02:00</time>
      </trkpt>
      <trkpt lat="48.14397" lon="6.87224">
        <ele>695</ele>
        <time>2018-08-06T08:26:30+02:00</time>
      </trkpt>
      <trkpt lat="48.14377" lon="6.87259">
        <ele>698</ele>
        <time>2018-08-06T08:26:46+02:00</time>
      </trkpt>
      <trkpt lat="48.14364" lon="6.87288">
        <ele>698</ele>
        <time>2018-08-06T08:27:04+02:00</time>
      </trkpt>
      <trkpt lat="48.14354" lon="6.87318">
        <ele>697</ele>
        <time>2018-08-06T08:27:23+02:00</time>
      </trkpt>
      <trkpt lat="48.14344" lon="6.87344">
        <ele>697</ele>
        <time>2018-08-06T08:27:42+02:00</time>
      </trkpt>
      <trkpt lat="48.14337" lon="6.87381">
        <ele>697</ele>
        <time>2018-08-06T08:27:58+02:00</time>
      </trkpt>
      <trkpt lat="48.14326" lon="6.87427">
        <ele>699</ele>
        <time>2018-08-06T08:28:15+02:00</time>
      </trkpt>
      <trkpt lat="48.14311" lon="6.87495">
        <ele>702</ele>
        <time>2018-08-06T08:28:42+02:00</time>
      </trkpt>
      <trkpt lat="48.14301" lon="6.87544">
        <ele>703</ele>
        <time>2018-08-06T08:37:33+02:00</time>
      </trkpt>
      <trkpt lat="48.14292" lon="6.87602">
        <ele>704</ele>
        <time>2018-08-06T08:37:41+02:00</time>
      </trkpt>
      <trkpt lat="48.14286" lon="6.87646">
        <ele>704</ele>
        <time>2018-08-06T08:38:00+02:00</time>
      </trkpt>
      <trkpt lat="48.14278" lon="6.87684">
        <ele>704</ele>
        <time>2018-08-06T08:39:04+02:00</time>
      </trkpt>
      <trkpt lat="48.14263" lon="6.87721">
        <ele>704</ele>
        <time>2018-08-06T08:39:20+02:00</time>
      </trkpt>
      <trkpt lat="48.14251" lon="6.87735">
        <ele>706</ele>
        <time>2018-08-06T08:39:36+02:00</time>
      </trkpt>
      <trkpt lat="48.14241" lon="6.87739">
        <ele>707</ele>
        <time>2018-08-06T08:39:54+02:00</time>
      </trkpt>
      <trkpt lat="48.1423" lon="6.87749">
        <ele>708</ele>
        <time>2018-08-06T08:40:09+02:00</time>
      </trkpt>
      <trkpt lat="48.14228" lon="6.87706">
        <ele>711</ele>
        <time>2018-08-06T08:40:25+02:00</time>
      </trkpt>
      <trkpt lat="48.14231" lon="6.87671">
        <ele>713</ele>
        <time>2018-08-06T08:40:41+02:00</time>
      </trkpt>
      <trkpt lat="48.14221" lon="6.87607">
        <ele>718</ele>
        <time>2018-08-06T08:40:56+02:00</time>
      </trkpt>
      <trkpt lat="48.14213" lon="6.87568">
        <ele>720</ele>
        <time>2018-08-06T08:41:11+02:00</time>
      </trkpt>
      <trkpt lat="48.14212" lon="6.87538">
        <ele>721</ele>
        <time>2018-08-06T08:41:26+02:00</time>
      </trkpt>
      <trkpt lat="48.14176" lon="6.87521">
        <ele>726</ele>
        <time>2018-08-06T08:41:43+02:00</time>
      </trkpt>
      <trkpt lat="48.14147" lon="6.87512">
        <ele>730</ele>
        <time>2018-08-06T08:41:59+02:00</time>
      </trkpt>
      <trkpt lat="48.14125" lon="6.87529">
        <ele>734</ele>
        <time>2018-08-06T08:42:13+02:00</time>
      </trkpt>
      <trkpt lat="48.1409" lon="6.87562">
        <ele>740</ele>
        <time>2018-08-06T08:42:29+02:00</time>
      </trkpt>
      <trkpt lat="48.14052" lon="6.87553">
        <ele>747</ele>
        <time>2018-08-06T08:42:45+02:00</time>
      </trkpt>
      <trkpt lat="48.14026" lon="6.87552">
        <ele>751</ele>
        <time>2018-08-06T08:53:58+02:00</time>
      </trkpt>
      <trkpt lat="48.14002" lon="6.87545">
        <ele>755</ele>
        <time>2018-08-06T08:54:15+02:00</time>
      </trkpt>
      <trkpt lat="48.13972" lon="6.87542">
        <ele>758</ele>
        <time>2018-08-06T08:54:27+02:00</time>
      </trkpt>
      <trkpt lat="48.1395" lon="6.87534">
        <ele>760</ele>
        <time>2018-08-06T08:54:45+02:00</time>
      </trkpt>
      <trkpt lat="48.13939" lon="6.87549">
        <ele>761</ele>
        <time>2018-08-06T08:55:00+02:00</time>
      </trkpt>
      <trkpt lat="48.13923" lon="6.8756">
        <ele>762</ele>
        <time>2018-08-06T08:55:20+02:00</time>
      </trkpt>
      <trkpt lat="48.13905" lon="6.87565">
        <ele>762</ele>
        <time>2018-08-06T08:58:59+02:00</time>
      </trkpt>
      <trkpt lat="48.13886" lon="6.87571">
        <ele>761</ele>
        <time>2018-08-06T08:59:14+02:00</time>
      </trkpt>
      <trkpt lat="48.13867" lon="6.87577">
        <ele>760</ele>
        <time>2018-08-06T08:59:30+02:00</time>
      </trkpt>
      <trkpt lat="48.1385" lon="6.87588">
        <ele>759</ele>
        <time>2018-08-06T08:59:44+02:00</time>
      </trkpt>
      <trkpt lat="48.13834" lon="6.87604">
        <ele>758</ele>
        <time>2018-08-06T09:00:00+02:00</time>
      </trkpt>
      <trkpt lat="48.13821" lon="6.87622">
        <ele>756</ele>
        <time>2018-08-06T09:00:11+02:00</time>
      </trkpt>
      <trkpt lat="48.13809" lon="6.87644">
        <ele>754</ele>
        <time>2018-08-06T09:00:27+02:00</time>
      </trkpt>
      <trkpt lat="48.13802" lon="6.87669">
        <ele>753</ele>
        <time>2018-08-06T09:00:46+02:00</time>
      </trkpt>
      <trkpt lat="48.13806" lon="6.877">
        <ele>753</ele>
        <time>2018-08-06T09:01:03+02:00</time>
      </trkpt>
      <trkpt lat="48.13788" lon="6.8771">
        <ele>752</ele>
        <time>2018-08-06T09:02:26+02:00</time>
      </trkpt>
      <trkpt lat="48.13775" lon="6.87689">
        <ele>751</ele>
        <time>2018-08-06T09:02:41+02:00</time>
      </trkpt>
      <trkpt lat="48.13758" lon="6.8768">
        <ele>750</ele>
        <time>2018-08-06T09:02:56+02:00</time>
      </trkpt>
      <trkpt lat="48.13738" lon="6.87686">
        <ele>749</ele>
        <time>2018-08-06T09:03:11+02:00</time>
      </trkpt>
      <trkpt lat="48.13721" lon="6.877">
        <ele>750</ele>
        <time>2018-08-06T09:03:27+02:00</time>
      </trkpt>
      <trkpt lat="48.13707" lon="6.87718">
        <ele>750</ele>
        <time>2018-08-06T09:03:44+02:00</time>
      </trkpt>
      <trkpt lat="48.13692" lon="6.87732">
        <ele>751</ele>
        <time>2018-08-06T09:03:59+02:00</time>
      </trkpt>
      <trkpt lat="48.1367" lon="6.87733">
        <ele>751</ele>
        <time>2018-08-06T09:04:17+02:00</time>
      </trkpt>
      <trkpt lat="48.13654" lon="6.87733">
        <ele>752</ele>
        <time>2018-08-06T09:04:32+02:00</time>
      </trkpt>
      <trkpt lat="48.13637" lon="6.87734">
        <ele>754</ele>
        <time>2018-08-06T09:04:50+02:00</time>
      </trkpt>
      <trkpt lat="48.13628" lon="6.87732">
        <ele>754</ele>
        <time>2018-08-06T09:05:03+02:00</time>
      </trkpt>
      <trkpt lat="48.13615" lon="6.87728">
        <ele>755</ele>
        <time>2018-08-06T09:05:33+02:00</time>
      </trkpt>
      <trkpt lat="48.13597" lon="6.87749">
        <ele>758</ele>
        <time>2018-08-06T09:06:33+02:00</time>
      </trkpt>
      <trkpt lat="48.13591" lon="6.87765">
        <ele>759</ele>
        <time>2018-08-06T09:06:43+02:00</time>
      </trkpt>
      <trkpt lat="48.13583" lon="6.87794">
        <ele>760</ele>
        <time>2018-08-06T09:06:57+02:00</time>
      </trkpt>
      <trkpt lat="48.13578" lon="6.87824">
        <ele>761</ele>
        <time>2018-08-06T09:07:27+02:00</time>
      </trkpt>
      <trkpt lat="48.13571" lon="6.87851">
        <ele>761</ele>
        <time>2018-08-06T09:08:09+02:00</time>
      </trkpt>
      <trkpt lat="48.1357" lon="6.87878">
        <ele>760</ele>
        <time>2018-08-06T09:08:23+02:00</time>
      </trkpt>
      <trkpt lat="48.13562" lon="6.87903">
        <ele>761</ele>
        <time>2018-08-06T09:08:39+02:00</time>
      </trkpt>
      <trkpt lat="48.13554" lon="6.87928">
        <ele>761</ele>
        <time>2018-08-06T09:08:53+02:00</time>
      </trkpt>
      <trkpt lat="48.1355" lon="6.87959">
        <ele>761</ele>
        <time>2018-08-06T09:09:07+02:00</time>
      </trkpt>
      <trkpt lat="48.13543" lon="6.87983">
        <ele>760</ele>
        <time>2018-08-06T09:09:24+02:00</time>
      </trkpt>
      <trkpt lat="48.13537" lon="6.8801">
        <ele>760</ele>
        <time>2018-08-06T09:09:39+02:00</time>
      </trkpt>
      <trkpt lat="48.13531" lon="6.88037">
        <ele>760</ele>
        <time>2018-08-06T09:09:53+02:00</time>
      </trkpt>
      <trkpt lat="48.13523" lon="6.88063">
        <ele>760</ele>
        <time>2018-08-06T09:10:07+02:00</time>
      </trkpt>
      <trkpt lat="48.13516" lon="6.88089">
        <ele>760</ele>
        <time>2018-08-06T09:10:21+02:00</time>
      </trkpt>
      <trkpt lat="48.13506" lon="6.88117">
        <ele>761</ele>
        <time>2018-08-06T09:10:37+02:00</time>
      </trkpt>
      <trkpt lat="48.13497" lon="6.88143">
        <ele>761</ele>
        <time>2018-08-06T09:10:53+02:00</time>
      </trkpt>
      <trkpt lat="48.13484" lon="6.88165">
        <ele>762</ele>
        <time>2018-08-06T09:11:09+02:00</time>
      </trkpt>
      <trkpt lat="48.13475" lon="6.88171">
        <ele>763</ele>
        <time>2018-08-06T09:11:17+02:00</time>
      </trkpt>
      <trkpt lat="48.13457" lon="6.88179">
        <ele>764</ele>
        <time>2018-08-06T09:11:35+02:00</time>
      </trkpt>
      <trkpt lat="48.13439" lon="6.88187">
        <ele>766</ele>
        <time>2018-08-06T09:11:51+02:00</time>
      </trkpt>
      <trkpt lat="48.1342" lon="6.882">
        <ele>767</ele>
        <time>2018-08-06T09:12:08+02:00</time>
      </trkpt>
      <trkpt lat="48.13401" lon="6.88209">
        <ele>769</ele>
        <time>2018-08-06T09:12:27+02:00</time>
      </trkpt>
      <trkpt lat="48.13395" lon="6.8822">
        <ele>769</ele>
        <time>2018-08-06T09:12:36+02:00</time>
      </trkpt>
      <trkpt lat="48.13381" lon="6.88233">
        <ele>771</ele>
        <time>2018-08-06T09:12:44+02:00</time>
      </trkpt>
      <trkpt lat="48.13372" lon="6.88239">
        <ele>772</ele>
        <time>2018-08-06T09:12:53+02:00</time>
      </trkpt>
      <trkpt lat="48.1336" lon="6.88247">
        <ele>773</ele>
        <time>2018-08-06T09:13:00+02:00</time>
      </trkpt>
      <trkpt lat="48.13348" lon="6.88265">
        <ele>775</ele>
        <time>2018-08-06T09:13:18+02:00</time>
      </trkpt>
      <trkpt lat="48.13333" lon="6.88277">
        <ele>778</ele>
        <time>2018-08-06T09:13:33+02:00</time>
      </trkpt>
      <trkpt lat="48.13317" lon="6.88291">
        <ele>779</ele>
        <time>2018-08-06T09:13:48+02:00</time>
      </trkpt>
      <trkpt lat="48.13307" lon="6.88309">
        <ele>779</ele>
        <time>2018-08-06T09:14:01+02:00</time>
      </trkpt>
      <trkpt lat="48.13296" lon="6.88329">
        <ele>780</ele>
        <time>2018-08-06T09:14:13+02:00</time>
      </trkpt>
      <trkpt lat="48.13284" lon="6.8835">
        <ele>781</ele>
        <time>2018-08-06T09:14:29+02:00</time>
      </trkpt>
      <trkpt lat="48.13274" lon="6.88374">
        <ele>781</ele>
        <time>2018-08-06T09:14:44+02:00</time>
      </trkpt>
      <trkpt lat="48.13267" lon="6.884">
        <ele>781</ele>
        <time>2018-08-06T09:14:59+02:00</time>
      </trkpt>
      <trkpt lat="48.13263" lon="6.88425">
        <ele>782</ele>
        <time>2018-08-06T09:15:14+02:00</time>
      </trkpt>
      <trkpt lat="48.13257" lon="6.88453">
        <ele>784</ele>
        <time>2018-08-06T09:15:29+02:00</time>
      </trkpt>
      <trkpt lat="48.13252" lon="6.8848">
        <ele>786</ele>
        <time>2018-08-06T09:15:45+02:00</time>
      </trkpt>
      <trkpt lat="48.13244" lon="6.88505">
        <ele>788</ele>
        <time>2018-08-06T09:16:00+02:00</time>
      </trkpt>
      <trkpt lat="48.13235" lon="6.88531">
        <ele>790</ele>
        <time>2018-08-06T09:16:16+02:00</time>
      </trkpt>
      <trkpt lat="48.13228" lon="6.88558">
        <ele>792</ele>
        <time>2018-08-06T09:16:33+02:00</time>
      </trkpt>
      <trkpt lat="48.13219" lon="6.88583">
        <ele>794</ele>
        <time>2018-08-06T09:16:56+02:00</time>
      </trkpt>
      <trkpt lat="48.13208" lon="6.88605">
        <ele>796</ele>
        <time>2018-08-06T09:17:17+02:00</time>
      </trkpt>
      <trkpt lat="48.13197" lon="6.88626">
        <ele>798</ele>
        <time>2018-08-06T09:20:24+02:00</time>
      </trkpt>
      <trkpt lat="48.13183" lon="6.8865">
        <ele>802</ele>
        <time>2018-08-06T09:20:42+02:00</time>
      </trkpt>
      <trkpt lat="48.1317" lon="6.88671">
        <ele>806</ele>
        <time>2018-08-06T09:21:02+02:00</time>
      </trkpt>
      <trkpt lat="48.13159" lon="6.88693">
        <ele>808</ele>
        <time>2018-08-06T09:21:20+02:00</time>
      </trkpt>
      <trkpt lat="48.13153" lon="6.88722">
        <ele>810</ele>
        <time>2018-08-06T09:21:36+02:00</time>
      </trkpt>
      <trkpt lat="48.13153" lon="6.88752">
        <ele>812</ele>
        <time>2018-08-06T09:21:59+02:00</time>
      </trkpt>
      <trkpt lat="48.13149" lon="6.88777">
        <ele>814</ele>
        <time>2018-08-06T09:23:04+02:00</time>
      </trkpt>
      <trkpt lat="48.13137" lon="6.88795">
        <ele>816</ele>
        <time>2018-08-06T09:24:19+02:00</time>
      </trkpt>
      <trkpt lat="48.13125" lon="6.88814">
        <ele>818</ele>
        <time>2018-08-06T09:24:32+02:00</time>
      </trkpt>
      <trkpt lat="48.13108" lon="6.88833">
        <ele>820</ele>
        <time>2018-08-06T09:24:49+02:00</time>
      </trkpt>
      <trkpt lat="48.131" lon="6.88862">
        <ele>822</ele>
        <time>2018-08-06T09:25:11+02:00</time>
      </trkpt>
      <trkpt lat="48.13097" lon="6.88888">
        <ele>824</ele>
        <time>2018-08-06T09:25:27+02:00</time>
      </trkpt>
      <trkpt lat="48.13097" lon="6.88915">
        <ele>825</ele>
        <time>2018-08-06T09:25:44+02:00</time>
      </trkpt>
      <trkpt lat="48.13096" lon="6.88942">
        <ele>826</ele>
        <time>2018-08-06T09:25:59+02:00</time>
      </trkpt>
      <trkpt lat="48.13095" lon="6.88971">
        <ele>828</ele>
        <time>2018-08-06T09:26:15+02:00</time>
      </trkpt>
      <trkpt lat="48.13093" lon="6.88998">
        <ele>829</ele>
        <time>2018-08-06T09:26:30+02:00</time>
      </trkpt>
      <trkpt lat="48.1309" lon="6.89026">
        <ele>828</ele>
        <time>2018-08-06T09:26:46+02:00</time>
      </trkpt>
      <trkpt lat="48.13079" lon="6.89049">
        <ele>828</ele>
        <time>2018-08-06T09:27:02+02:00</time>
      </trkpt>
      <trkpt lat="48.13068" lon="6.89071">
        <ele>829</ele>
        <time>2018-08-06T09:27:16+02:00</time>
      </trkpt>
      <trkpt lat="48.13057" lon="6.89094">
        <ele>829</ele>
        <time>2018-08-06T09:27:30+02:00</time>
      </trkpt>
      <trkpt lat="48.13042" lon="6.8911">
        <ele>830</ele>
        <time>2018-08-06T09:27:43+02:00</time>
      </trkpt>
      <trkpt lat="48.13025" lon="6.89125">
        <ele>832</ele>
        <time>2018-08-06T09:27:59+02:00</time>
      </trkpt>
      <trkpt lat="48.13009" lon="6.89137">
        <ele>834</ele>
        <time>2018-08-06T09:28:18+02:00</time>
      </trkpt>
      <trkpt lat="48.12991" lon="6.89147">
        <ele>838</ele>
        <time>2018-08-06T09:28:33+02:00</time>
      </trkpt>
      <trkpt lat="48.12972" lon="6.89146">
        <ele>843</ele>
        <time>2018-08-06T09:28:47+02:00</time>
      </trkpt>
      <trkpt lat="48.12954" lon="6.89154">
        <ele>847</ele>
        <time>2018-08-06T09:29:02+02:00</time>
      </trkpt>
      <trkpt lat="48.12936" lon="6.89158">
        <ele>851</ele>
        <time>2018-08-06T09:29:21+02:00</time>
      </trkpt>
      <trkpt lat="48.12918" lon="6.89163">
        <ele>855</ele>
        <time>2018-08-06T09:29:38+02:00</time>
      </trkpt>
      <trkpt lat="48.12901" lon="6.89177">
        <ele>854</ele>
        <time>2018-08-06T09:29:54+02:00</time>
      </trkpt>
      <trkpt lat="48.12883" lon="6.89185">
        <ele>854</ele>
        <time>2018-08-06T09:30:09+02:00</time>
      </trkpt>
      <trkpt lat="48.12866" lon="6.89196">
        <ele>854</ele>
        <time>2018-08-06T09:30:25+02:00</time>
      </trkpt>
      <trkpt lat="48.1285" lon="6.89213">
        <ele>853</ele>
        <time>2018-08-06T09:30:43+02:00</time>
      </trkpt>
      <trkpt lat="48.12833" lon="6.89228">
        <ele>852</ele>
        <time>2018-08-06T09:31:04+02:00</time>
      </trkpt>
      <trkpt lat="48.12821" lon="6.8925">
        <ele>847</ele>
        <time>2018-08-06T09:31:21+02:00</time>
      </trkpt>
      <trkpt lat="48.12809" lon="6.89271">
        <ele>848</ele>
        <time>2018-08-06T09:31:37+02:00</time>
      </trkpt>
      <trkpt lat="48.12799" lon="6.89295">
        <ele>845</ele>
        <time>2018-08-06T09:31:52+02:00</time>
      </trkpt>
      <trkpt lat="48.12786" lon="6.89317">
        <ele>844</ele>
        <time>2018-08-06T09:32:07+02:00</time>
      </trkpt>
      <trkpt lat="48.12777" lon="6.89341">
        <ele>842</ele>
        <time>2018-08-06T09:32:23+02:00</time>
      </trkpt>
      <trkpt lat="48.12768" lon="6.89367">
        <ele>841</ele>
        <time>2018-08-06T09:32:42+02:00</time>
      </trkpt>
      <trkpt lat="48.12755" lon="6.89389">
        <ele>842</ele>
        <time>2018-08-06T09:32:57+02:00</time>
      </trkpt>
      <trkpt lat="48.1274" lon="6.89406">
        <ele>842</ele>
        <time>2018-08-06T09:33:12+02:00</time>
      </trkpt>
      <trkpt lat="48.12732" lon="6.89415">
        <ele>842</ele>
        <time>2018-08-06T09:33:20+02:00</time>
      </trkpt>
      <trkpt lat="48.12709" lon="6.8943">
        <ele>844</ele>
        <time>2018-08-06T09:33:28+02:00</time>
      </trkpt>
      <trkpt lat="48.12691" lon="6.89359">
        <ele>858</ele>
      </trkpt>
      <trkpt lat="48.12754" lon="6.89136">
        <ele>881</ele>
      </trkpt>
      <trkpt lat="48.12613" lon="6.89101">
        <ele>921</ele>
      </trkpt>
      <trkpt lat="48.12548" lon="6.89058">
        <ele>937</ele>
      </trkpt>
      <trkpt lat="48.12499" lon="6.89011">
        <ele>950</ele>
      </trkpt>
      <trkpt lat="48.12456" lon="6.88904">
        <ele>944</ele>
      </trkpt>
      <trkpt lat="48.12404" lon="6.88891">
        <ele>937</ele>
      </trkpt>
      <trkpt lat="48.12338" lon="6.8902">
        <ele>918</ele>
      </trkpt>
      <trkpt lat="48.12316" lon="6.8908">
        <ele>910</ele>
      </trkpt>
      <trkpt lat="48.12255" lon="6.8911">
        <ele>893</ele>
      </trkpt>
      <trkpt lat="48.12204" lon="6.89217">
        <ele>878</ele>
      </trkpt>
      <trkpt lat="48.12144" lon="6.89273">
        <ele>865</ele>
      </trkpt>
      <trkpt lat="48.12089" lon="6.89337">
        <ele>856</ele>
      </trkpt>
      <trkpt lat="48.12041" lon="6.89389">
        <ele>848</ele>
      </trkpt>
      <trkpt lat="48.11987" lon="6.8942">
        <ele>848</ele>
      </trkpt>
      <trkpt lat="48.11957" lon="6.89452">
        <ele>849</ele>
        <time>2018-08-06T10:27:55+02:00</time>
      </trkpt>
      <trkpt lat="48.11941" lon="6.89466">
        <ele>850</ele>
        <time>2018-08-06T10:28:13+02:00</time>
      </trkpt>
      <trkpt lat="48.11926" lon="6.89483">
        <ele>852</ele>
        <time>2018-08-06T10:28:28+02:00</time>
      </trkpt>
      <trkpt lat="48.11912" lon="6.89501">
        <ele>854</ele>
        <time>2018-08-06T10:28:41+02:00</time>
      </trkpt>
      <trkpt lat="48.11894" lon="6.89508">
        <ele>853</ele>
        <time>2018-08-06T10:28:52+02:00</time>
      </trkpt>
      <trkpt lat="48.11886" lon="6.89534">
        <ele>852</ele>
        <time>2018-08-06T10:29:11+02:00</time>
      </trkpt>
      <trkpt lat="48.11878" lon="6.89544">
        <ele>852</ele>
        <time>2018-08-06T10:29:16+02:00</time>
      </trkpt>
      <trkpt lat="48.11864" lon="6.89548">
        <ele>852</ele>
        <time>2018-08-06T10:29:22+02:00</time>
      </trkpt>
      <trkpt lat="48.11846" lon="6.89559">
        <ele>853</ele>
        <time>2018-08-06T10:33:01+02:00</time>
      </trkpt>
      <trkpt lat="48.11804" lon="6.89566">
        <ele>853</ele>
        <time>2018-08-06T10:33:12+02:00</time>
      </trkpt>
      <trkpt lat="48.11737" lon="6.89569">
        <ele>853</ele>
      </trkpt>
      <trkpt lat="48.11659" lon="6.89496">
        <ele>849</ele>
      </trkpt>
      <trkpt lat="48.11579" lon="6.8947">
        <ele>846</ele>
      </trkpt>
      <trkpt lat="48.11528" lon="6.89423">
        <ele>844</ele>
      </trkpt>
      <trkpt lat="48.11513" lon="6.89359">
        <ele>839</ele>
      </trkpt>
      <trkpt lat="48.11596" lon="6.89324">
        <ele>839</ele>
      </trkpt>
      <trkpt lat="48.11668" lon="6.89217">
        <ele>831</ele>
      </trkpt>
      <trkpt lat="48.11717" lon="6.8914">
        <ele>826</ele>
      </trkpt>
      <trkpt lat="48.11748" lon="6.89033">
        <ele>820</ele>
      </trkpt>
      <trkpt lat="48.1186" lon="6.88878">
        <ele>808</ele>
      </trkpt>
      <trkpt lat="48.11914" lon="6.88792">
        <ele>802</ele>
      </trkpt>
      <trkpt lat="48.1196" lon="6.88702">
        <ele>806</ele>
      </trkpt>
      <trkpt lat="48.11986" lon="6.88655">
        <ele>810</ele>
      </trkpt>
      <trkpt lat="48.12003" lon="6.88617">
        <ele>812</ele>
        <time>2018-08-06T10:58:40+02:00</time>
      </trkpt>
      <trkpt lat="48.12019" lon="6.88589">
        <ele>813</ele>
        <time>2018-08-06T10:58:58+02:00</time>
      </trkpt>
      <trkpt lat="48.12044" lon="6.88545">
        <ele>813</ele>
        <time>2018-08-06T10:59:15+02:00</time>
      </trkpt>
      <trkpt lat="48.12085" lon="6.88466">
        <ele>812</ele>
      </trkpt>
      <trkpt lat="48.12116" lon="6.88421">
        <ele>810</ele>
      </trkpt>
      <trkpt lat="48.12196" lon="6.88314">
        <ele>808</ele>
      </trkpt>
      <trkpt lat="48.12279" lon="6.88204">
        <ele>804</ele>
      </trkpt>
      <trkpt lat="48.1239" lon="6.88122">
        <ele>802</ele>
      </trkpt>
      <trkpt lat="48.12451" lon="6.88102">
        <ele>800</ele>
        <time>2018-08-06T11:13:08+02:00</time>
      </trkpt>
      <trkpt lat="48.12482" lon="6.8812">
        <ele>801</ele>
        <time>2018-08-06T11:13:38+02:00</time>
      </trkpt>
      <trkpt lat="48.12501" lon="6.88139">
        <ele>802</ele>
        <time>2018-08-06T11:14:00+02:00</time>
      </trkpt>
      <trkpt lat="48.12516" lon="6.88145">
        <ele>801</ele>
        <time>2018-08-06T11:14:12+02:00</time>
      </trkpt>
      <trkpt lat="48.12534" lon="6.88154">
        <ele>799</ele>
        <time>2018-08-06T11:14:34+02:00</time>
      </trkpt>
      <trkpt lat="48.12552" lon="6.88163">
        <ele>798</ele>
        <time>2018-08-06T11:14:51+02:00</time>
      </trkpt>
      <trkpt lat="48.12569" lon="6.88176">
        <ele>797</ele>
        <time>2018-08-06T11:15:06+02:00</time>
      </trkpt>
      <trkpt lat="48.12588" lon="6.88183">
        <ele>796</ele>
        <time>2018-08-06T11:15:18+02:00</time>
      </trkpt>
      <trkpt lat="48.12605" lon="6.88191">
        <ele>796</ele>
        <time>2018-08-06T11:15:35+02:00</time>
      </trkpt>
      <trkpt lat="48.12625" lon="6.88198">
        <ele>795</ele>
        <time>2018-08-06T11:15:53+02:00</time>
      </trkpt>
      <trkpt lat="48.12638" lon="6.88207">
        <ele>795</ele>
        <time>2018-08-06T11:15:59+02:00</time>
      </trkpt>
      <trkpt lat="48.12649" lon="6.88205">
        <ele>793</ele>
        <time>2018-08-06T11:16:05+02:00</time>
      </trkpt>
      <trkpt lat="48.12667" lon="6.88206">
        <ele>792</ele>
        <time>2018-08-06T11:16:21+02:00</time>
      </trkpt>
      <trkpt lat="48.12678" lon="6.88206">
        <ele>791</ele>
        <time>2018-08-06T11:16:30+02:00</time>
      </trkpt>
      <trkpt lat="48.12692" lon="6.88209">
        <ele>790</ele>
        <time>2018-08-06T11:16:49+02:00</time>
      </trkpt>
      <trkpt lat="48.12707" lon="6.88216">
        <ele>790</ele>
        <time>2018-08-06T11:17:04+02:00</time>
      </trkpt>
      <trkpt lat="48.1273" lon="6.88226">
        <ele>790</ele>
        <time>2018-08-06T11:17:22+02:00</time>
      </trkpt>
      <trkpt lat="48.12749" lon="6.88211">
        <ele>786</ele>
        <time>2018-08-06T11:17:39+02:00</time>
      </trkpt>
      <trkpt lat="48.12767" lon="6.88205">
        <ele>785</ele>
        <time>2018-08-06T11:18:00+02:00</time>
      </trkpt>
      <trkpt lat="48.12783" lon="6.88191">
        <ele>783</ele>
        <time>2018-08-06T11:18:27+02:00</time>
      </trkpt>
      <trkpt lat="48.12796" lon="6.88172">
        <ele>781</ele>
        <time>2018-08-06T11:18:39+02:00</time>
      </trkpt>
      <trkpt lat="48.1281" lon="6.88152">
        <ele>778</ele>
        <time>2018-08-06T11:18:57+02:00</time>
      </trkpt>
      <trkpt lat="48.12826" lon="6.88139">
        <ele>776</ele>
        <time>2018-08-06T11:19:13+02:00</time>
      </trkpt>
      <trkpt lat="48.12843" lon="6.88122">
        <ele>774</ele>
        <time>2018-08-06T11:19:27+02:00</time>
      </trkpt>
      <trkpt lat="48.12859" lon="6.88104">
        <ele>771</ele>
        <time>2018-08-06T11:19:47+02:00</time>
      </trkpt>
      <trkpt lat="48.12872" lon="6.88082">
        <ele>769</ele>
        <time>2018-08-06T11:20:04+02:00</time>
      </trkpt>
      <trkpt lat="48.12888" lon="6.88063">
        <ele>767</ele>
        <time>2018-08-06T11:20:25+02:00</time>
      </trkpt>
      <trkpt lat="48.12901" lon="6.88043">
        <ele>764</ele>
        <time>2018-08-06T11:20:38+02:00</time>
      </trkpt>
      <trkpt lat="48.12915" lon="6.88023">
        <ele>763</ele>
        <time>2018-08-06T11:20:53+02:00</time>
      </trkpt>
      <trkpt lat="48.12929" lon="6.88004">
        <ele>762</ele>
        <time>2018-08-06T11:21:10+02:00</time>
      </trkpt>
      <trkpt lat="48.12941" lon="6.87982">
        <ele>760</ele>
        <time>2018-08-06T11:21:29+02:00</time>
      </trkpt>
      <trkpt lat="48.12958" lon="6.87966">
        <ele>759</ele>
        <time>2018-08-06T11:21:45+02:00</time>
      </trkpt>
      <trkpt lat="48.12972" lon="6.87947">
        <ele>758</ele>
        <time>2018-08-06T11:22:04+02:00</time>
      </trkpt>
      <trkpt lat="48.12986" lon="6.87927">
        <ele>757</ele>
        <time>2018-08-06T11:22:19+02:00</time>
      </trkpt>
      <trkpt lat="48.13003" lon="6.87914">
        <ele>757</ele>
        <time>2018-08-06T11:22:33+02:00</time>
      </trkpt>
      <trkpt lat="48.13022" lon="6.87907">
        <ele>756</ele>
        <time>2018-08-06T11:22:50+02:00</time>
      </trkpt>
      <trkpt lat="48.13036" lon="6.87888">
        <ele>755</ele>
        <time>2018-08-06T11:23:07+02:00</time>
      </trkpt>
      <trkpt lat="48.13038" lon="6.87858">
        <ele>752</ele>
        <time>2018-08-06T11:23:35+02:00</time>
      </trkpt>
      <trkpt lat="48.13048" lon="6.87834">
        <ele>751</ele>
        <time>2018-08-06T11:23:58+02:00</time>
      </trkpt>
      <trkpt lat="48.13062" lon="6.87814">
        <ele>749</ele>
        <time>2018-08-06T11:24:11+02:00</time>
      </trkpt>
      <trkpt lat="48.13074" lon="6.87789">
        <ele>745</ele>
        <time>2018-08-06T11:24:27+02:00</time>
      </trkpt>
      <trkpt lat="48.13061" lon="6.8777">
        <ele>741</ele>
        <time>2018-08-06T11:25:10+02:00</time>
      </trkpt>
      <trkpt lat="48.13043" lon="6.8778">
        <ele>741</ele>
        <time>2018-08-06T11:25:26+02:00</time>
      </trkpt>
      <trkpt lat="48.13024" lon="6.87785">
        <ele>741</ele>
        <time>2018-08-06T11:25:40+02:00</time>
      </trkpt>
      <trkpt lat="48.13005" lon="6.87791">
        <ele>740</ele>
        <time>2018-08-06T11:25:58+02:00</time>
      </trkpt>
      <trkpt lat="48.13016" lon="6.87765">
        <ele>737</ele>
        <time>2018-08-06T11:26:42+02:00</time>
      </trkpt>
      <trkpt lat="48.13022" lon="6.87738">
        <ele>733</ele>
        <time>2018-08-06T11:26:57+02:00</time>
      </trkpt>
      <trkpt lat="48.13036" lon="6.87717">
        <ele>732</ele>
        <time>2018-08-06T11:27:16+02:00</time>
      </trkpt>
      <trkpt lat="48.13051" lon="6.87699">
        <ele>731</ele>
        <time>2018-08-06T11:27:31+02:00</time>
      </trkpt>
      <trkpt lat="48.13065" lon="6.8768">
        <ele>731</ele>
        <time>2018-08-06T11:27:47+02:00</time>
      </trkpt>
      <trkpt lat="48.13082" lon="6.87667">
        <ele>731</ele>
        <time>2018-08-06T11:28:03+02:00</time>
      </trkpt>
      <trkpt lat="48.13095" lon="6.87648">
        <ele>730</ele>
        <time>2018-08-06T11:28:18+02:00</time>
      </trkpt>
      <trkpt lat="48.13111" lon="6.87633">
        <ele>730</ele>
        <time>2018-08-06T11:28:34+02:00</time>
      </trkpt>
      <trkpt lat="48.13121" lon="6.87609">
        <ele>729</ele>
        <time>2018-08-06T11:28:51+02:00</time>
      </trkpt>
      <trkpt lat="48.13136" lon="6.87588">
        <ele>728</ele>
        <time>2018-08-06T11:29:08+02:00</time>
      </trkpt>
      <trkpt lat="48.13152" lon="6.8757">
        <ele>728</ele>
        <time>2018-08-06T11:29:22+02:00</time>
      </trkpt>
      <trkpt lat="48.13161" lon="6.87546">
        <ele>727</ele>
        <time>2018-08-06T11:29:50+02:00</time>
      </trkpt>
      <trkpt lat="48.13174" lon="6.87523">
        <ele>727</ele>
        <time>2018-08-06T11:30:09+02:00</time>
      </trkpt>
      <trkpt lat="48.13189" lon="6.87509">
        <ele>727</ele>
        <time>2018-08-06T11:30:25+02:00</time>
      </trkpt>
      <trkpt lat="48.13199" lon="6.87487">
        <ele>725</ele>
        <time>2018-08-06T11:31:25+02:00</time>
      </trkpt>
      <trkpt lat="48.13216" lon="6.87469">
        <ele>724</ele>
        <time>2018-08-06T11:32:14+02:00</time>
      </trkpt>
      <trkpt lat="48.13228" lon="6.87448">
        <ele>721</ele>
        <time>2018-08-06T11:32:28+02:00</time>
      </trkpt>
      <trkpt lat="48.13242" lon="6.87427">
        <ele>718</ele>
        <time>2018-08-06T11:32:41+02:00</time>
      </trkpt>
      <trkpt lat="48.13253" lon="6.87404">
        <ele>716</ele>
        <time>2018-08-06T11:32:55+02:00</time>
      </trkpt>
      <trkpt lat="48.13266" lon="6.87382">
        <ele>715</ele>
        <time>2018-08-06T11:33:11+02:00</time>
      </trkpt>
      <trkpt lat="48.13282" lon="6.87363">
        <ele>715</ele>
        <time>2018-08-06T11:33:28+02:00</time>
      </trkpt>
      <trkpt lat="48.13292" lon="6.8735">
        <ele>714</ele>
        <time>2018-08-06T11:33:35+02:00</time>
      </trkpt>
      <trkpt lat="48.13305" lon="6.87322">
        <ele>712</ele>
        <time>2018-08-06T11:33:42+02:00</time>
      </trkpt>
      <trkpt lat="48.13282" lon="6.87327">
        <ele>710</ele>
        <time>2018-08-06T11:34:09+02:00</time>
      </trkpt>
      <trkpt lat="48.13275" lon="6.87345">
        <ele>712</ele>
        <time>2018-08-06T11:34:15+02:00</time>
      </trkpt>
      <trkpt lat="48.13253" lon="6.87352">
        <ele>710</ele>
        <time>2018-08-06T11:34:30+02:00</time>
      </trkpt>
      <trkpt lat="48.13235" lon="6.87366">
        <ele>711</ele>
        <time>2018-08-06T11:34:49+02:00</time>
      </trkpt>
      <trkpt lat="48.13217" lon="6.87376">
        <ele>712</ele>
        <time>2018-08-06T11:35:06+02:00</time>
      </trkpt>
      <trkpt lat="48.13201" lon="6.8739">
        <ele>712</ele>
        <time>2018-08-06T11:35:21+02:00</time>
      </trkpt>
      <trkpt lat="48.13182" lon="6.87401">
        <ele>712</ele>
        <time>2018-08-06T11:35:36+02:00</time>
      </trkpt>
      <trkpt lat="48.13165" lon="6.87415">
        <ele>712</ele>
        <time>2018-08-06T11:35:53+02:00</time>
      </trkpt>
      <trkpt lat="48.13144" lon="6.87416">
        <ele>711</ele>
        <time>2018-08-06T11:38:22+02:00</time>
      </trkpt>
      <trkpt lat="48.13129" lon="6.87426">
        <ele>712</ele>
        <time>2018-08-06T11:38:33+02:00</time>
      </trkpt>
      <trkpt lat="48.13109" lon="6.87429">
        <ele>712</ele>
        <time>2018-08-06T11:38:48+02:00</time>
      </trkpt>
      <trkpt lat="48.1309" lon="6.87427">
        <ele>711</ele>
        <time>2018-08-06T11:38:59+02:00</time>
      </trkpt>
      <trkpt lat="48.13071" lon="6.87428">
        <ele>710</ele>
        <time>2018-08-06T11:39:12+02:00</time>
      </trkpt>
      <trkpt lat="48.13051" lon="6.87419">
        <ele>708</ele>
        <time>2018-08-06T11:39:30+02:00</time>
      </trkpt>
      <trkpt lat="48.13034" lon="6.87405">
        <ele>706</ele>
        <time>2018-08-06T11:39:43+02:00</time>
      </trkpt>
      <trkpt lat="48.13015" lon="6.87401">
        <ele>705</ele>
        <time>2018-08-06T11:39:59+02:00</time>
      </trkpt>
      <trkpt lat="48.12998" lon="6.87388">
        <ele>704</ele>
        <time>2018-08-06T11:40:14+02:00</time>
      </trkpt>
      <trkpt lat="48.12981" lon="6.87376">
        <ele>704</ele>
        <time>2018-08-06T11:40:33+02:00</time>
      </trkpt>
      <trkpt lat="48.12974" lon="6.87349">
        <ele>704</ele>
        <time>2018-08-06T11:40:48+02:00</time>
      </trkpt>
      <trkpt lat="48.12961" lon="6.87328">
        <ele>704</ele>
        <time>2018-08-06T11:41:05+02:00</time>
      </trkpt>
      <trkpt lat="48.12943" lon="6.87313">
        <ele>704</ele>
        <time>2018-08-06T11:41:19+02:00</time>
      </trkpt>
      <trkpt lat="48.12928" lon="6.87294">
        <ele>705</ele>
        <time>2018-08-06T11:41:34+02:00</time>
      </trkpt>
      <trkpt lat="48.12918" lon="6.8727">
        <ele>705</ele>
        <time>2018-08-06T11:41:52+02:00</time>
      </trkpt>
      <trkpt lat="48.12909" lon="6.87249">
        <ele>706</ele>
        <time>2018-08-06T11:42:08+02:00</time>
      </trkpt>
      <trkpt lat="48.12907" lon="6.87221">
        <ele>708</ele>
        <time>2018-08-06T11:42:23+02:00</time>
      </trkpt>
      <trkpt lat="48.12904" lon="6.87193">
        <ele>710</ele>
        <time>2018-08-06T11:42:34+02:00</time>
      </trkpt>
      <trkpt lat="48.12901" lon="6.87165">
        <ele>712</ele>
        <time>2018-08-06T11:42:46+02:00</time>
      </trkpt>
      <trkpt lat="48.12908" lon="6.87144">
        <ele>711</ele>
        <time>2018-08-06T11:42:58+02:00</time>
      </trkpt>
      <trkpt lat="48.12911" lon="6.87115">
        <ele>710</ele>
        <time>2018-08-06T11:43:13+02:00</time>
      </trkpt>
      <trkpt lat="48.1292" lon="6.8709">
        <ele>708</ele>
        <time>2018-08-06T11:43:25+02:00</time>
      </trkpt>
      <trkpt lat="48.12929" lon="6.87065">
        <ele>708</ele>
        <time>2018-08-06T11:43:39+02:00</time>
      </trkpt>
      <trkpt lat="48.12932" lon="6.87037">
        <ele>710</ele>
        <time>2018-08-06T11:43:56+02:00</time>
      </trkpt>
      <trkpt lat="48.12934" lon="6.8701">
        <ele>711</ele>
        <time>2018-08-06T11:44:36+02:00</time>
      </trkpt>
      <trkpt lat="48.12933" lon="6.86985">
        <ele>711</ele>
        <time>2018-08-06T11:44:52+02:00</time>
      </trkpt>
      <trkpt lat="48.12945" lon="6.86962">
        <ele>711</ele>
        <time>2018-08-06T11:45:09+02:00</time>
      </trkpt>
      <trkpt lat="48.12944" lon="6.86936">
        <ele>711</ele>
        <time>2018-08-06T11:45:41+02:00</time>
      </trkpt>
      <trkpt lat="48.12945" lon="6.86907">
        <ele>711</ele>
        <time>2018-08-06T11:46:02+02:00</time>
      </trkpt>
      <trkpt lat="48.12953" lon="6.86881">
        <ele>712</ele>
        <time>2018-08-06T11:46:17+02:00</time>
      </trkpt>
      <trkpt lat="48.12956" lon="6.86854">
        <ele>712</ele>
        <time>2018-08-06T11:46:35+02:00</time>
      </trkpt>
      <trkpt lat="48.12944" lon="6.86833">
        <ele>714</ele>
        <time>2018-08-06T11:46:58+02:00</time>
      </trkpt>
      <trkpt lat="48.12944" lon="6.86807">
        <ele>713</ele>
        <time>2018-08-06T11:47:12+02:00</time>
      </trkpt>
      <trkpt lat="48.12948" lon="6.86779">
        <ele>711</ele>
        <time>2018-08-06T11:47:26+02:00</time>
      </trkpt>
      <trkpt lat="48.12954" lon="6.8675">
        <ele>710</ele>
        <time>2018-08-06T11:47:43+02:00</time>
      </trkpt>
      <trkpt lat="48.12954" lon="6.86721">
        <ele>710</ele>
        <time>2018-08-06T11:48:03+02:00</time>
      </trkpt>
      <trkpt lat="48.12961" lon="6.86692">
        <ele>708</ele>
        <time>2018-08-06T11:48:27+02:00</time>
      </trkpt>
      <trkpt lat="48.12971" lon="6.86665">
        <ele>707</ele>
        <time>2018-08-06T11:48:38+02:00</time>
      </trkpt>
      <trkpt lat="48.12977" lon="6.86639">
        <ele>709</ele>
        <time>2018-08-06T11:48:53+02:00</time>
      </trkpt>
      <trkpt lat="48.12979" lon="6.86612">
        <ele>712</ele>
        <time>2018-08-06T11:49:14+02:00</time>
      </trkpt>
      <trkpt lat="48.1298" lon="6.86586">
        <ele>715</ele>
        <time>2018-08-06T11:49:34+02:00</time>
      </trkpt>
      <trkpt lat="48.12987" lon="6.86561">
        <ele>715</ele>
        <time>2018-08-06T11:49:51+02:00</time>
      </trkpt>
      <trkpt lat="48.12998" lon="6.86537">
        <ele>716</ele>
        <time>2018-08-06T11:50:08+02:00</time>
      </trkpt>
      <trkpt lat="48.13004" lon="6.86511">
        <ele>717</ele>
        <time>2018-08-06T11:50:26+02:00</time>
      </trkpt>
      <trkpt lat="48.13017" lon="6.86492">
        <ele>719</ele>
        <time>2018-08-06T11:50:44+02:00</time>
      </trkpt>
      <trkpt lat="48.13029" lon="6.86469">
        <ele>721</ele>
        <time>2018-08-06T11:51:01+02:00</time>
      </trkpt>
      <trkpt lat="48.13038" lon="6.86444">
        <ele>723</ele>
        <time>2018-08-06T11:51:19+02:00</time>
      </trkpt>
      <trkpt lat="48.13053" lon="6.86426">
        <ele>725</ele>
        <time>2018-08-06T11:51:43+02:00</time>
      </trkpt>
      <trkpt lat="48.13052" lon="6.86396">
        <ele>727</ele>
        <time>2018-08-06T11:52:50+02:00</time>
      </trkpt>
      <trkpt lat="48.13037" lon="6.8638">
        <ele>727</ele>
        <time>2018-08-06T11:53:14+02:00</time>
      </trkpt>
      <trkpt lat="48.1302" lon="6.86365">
        <ele>727</ele>
        <time>2018-08-06T11:53:35+02:00</time>
      </trkpt>
      <trkpt lat="48.13002" lon="6.86355">
        <ele>727</ele>
        <time>2018-08-06T11:53:53+02:00</time>
      </trkpt>
      <trkpt lat="48.12987" lon="6.86337">
        <ele>728</ele>
        <time>2018-08-06T11:54:06+02:00</time>
      </trkpt>
      <trkpt lat="48.12982" lon="6.86311">
        <ele>730</ele>
        <time>2018-08-06T11:54:22+02:00</time>
      </trkpt>
      <trkpt lat="48.12974" lon="6.86285">
        <ele>732</ele>
        <time>2018-08-06T11:54:37+02:00</time>
      </trkpt>
      <trkpt lat="48.12962" lon="6.86263">
        <ele>734</ele>
        <time>2018-08-06T11:54:57+02:00</time>
      </trkpt>
      <trkpt lat="48.12949" lon="6.86239">
        <ele>735</ele>
        <time>2018-08-06T11:55:14+02:00</time>
      </trkpt>
      <trkpt lat="48.12941" lon="6.86214">
        <ele>735</ele>
        <time>2018-08-06T11:56:06+02:00</time>
      </trkpt>
      <trkpt lat="48.12929" lon="6.86192">
        <ele>735</ele>
        <time>2018-08-06T11:56:22+02:00</time>
      </trkpt>
      <trkpt lat="48.12925" lon="6.86163">
        <ele>735</ele>
        <time>2018-08-06T11:56:38+02:00</time>
      </trkpt>
      <trkpt lat="48.12924" lon="6.86134">
        <ele>735</ele>
        <time>2018-08-06T11:56:53+02:00</time>
      </trkpt>
      <trkpt lat="48.12916" lon="6.86108">
        <ele>734</ele>
        <time>2018-08-06T11:57:14+02:00</time>
      </trkpt>
      <trkpt lat="48.12907" lon="6.86083">
        <ele>733</ele>
        <time>2018-08-06T11:57:34+02:00</time>
      </trkpt>
      <trkpt lat="48.12901" lon="6.86054">
        <ele>731</ele>
        <time>2018-08-06T11:57:51+02:00</time>
      </trkpt>
      <trkpt lat="48.12901" lon="6.86024">
        <ele>730</ele>
        <time>2018-08-06T11:58:05+02:00</time>
      </trkpt>
      <trkpt lat="48.12902" lon="6.86005">
        <ele>729</ele>
        <time>2018-08-06T11:58:11+02:00</time>
      </trkpt>
      <trkpt lat="48.12889" lon="6.85982">
        <ele>727</ele>
        <time>2018-08-06T11:58:18+02:00</time>
      </trkpt>
      <trkpt lat="48.1291" lon="6.85961">
        <ele>726</ele>
      </trkpt>
      <trkpt lat="48.12915" lon="6.85939">
        <ele>725</ele>
      </trkpt>
      <trkpt lat="48.12926" lon="6.85911">
        <ele>723</ele>
      </trkpt>
      <trkpt lat="48.12942" lon="6.85908">
        <ele>724</ele>
      </trkpt>
      <trkpt lat="48.1297" lon="6.85947">
        <ele>728</ele>
      </trkpt>
      <trkpt lat="48.12995" lon="6.85966">
        <ele>731</ele>
      </trkpt>
      <trkpt lat="48.13017" lon="6.85982">
        <ele>735</ele>
      </trkpt>
      <trkpt lat="48.13025" lon="6.85949">
        <ele>733</ele>
      </trkpt>
      <trkpt lat="48.13031" lon="6.85913">
        <ele>731</ele>
      </trkpt>
      <trkpt lat="48.1304" lon="6.85865">
        <ele>730</ele>
      </trkpt>
      <trkpt lat="48.13057" lon="6.8584">
        <ele>731</ele>
      </trkpt>
      <trkpt lat="48.13067" lon="6.85823">
        <ele>731</ele>
      </trkpt>
      <trkpt lat="48.13073" lon="6.85796">
        <ele>730</ele>
      </trkpt>
      <trkpt lat="48.13088" lon="6.85795">
        <ele>732</ele>
      </trkpt>
      <trkpt lat="48.13065" lon="6.85929">
        <ele>737</ele>
      </trkpt>
      <trkpt lat="48.13048" lon="6.86029">
        <ele>742</ele>
      </trkpt>
      <trkpt lat="48.13036" lon="6.8607">
        <ele>742</ele>
      </trkpt>
      <trkpt lat="48.13034" lon="6.86107">
        <ele>742</ele>
      </trkpt>
      <trkpt lat="48.13013" lon="6.86153">
        <ele>739</ele>
      </trkpt>
      <trkpt lat="48.13042" lon="6.86147">
        <ele>741</ele>
      </trkpt>
      <trkpt lat="48.13063" lon="6.86158">
        <ele>743</ele>
      </trkpt>
      <trkpt lat="48.13081" lon="6.8617">
        <ele>745</ele>
      </trkpt>
      <trkpt lat="48.13094" lon="6.86167">
        <ele>745</ele>
      </trkpt>
      <trkpt lat="48.13139" lon="6.86163">
        <ele>747</ele>
      </trkpt>
      <trkpt lat="48.13171" lon="6.86142">
        <ele>748</ele>
      </trkpt>
      <trkpt lat="48.13189" lon="6.86107">
        <ele>747</ele>
      </trkpt>
      <trkpt lat="48.13208" lon="6.86093">
        <ele>745</ele>
      </trkpt>
      <trkpt lat="48.13239" lon="6.86091">
        <ele>743</ele>
      </trkpt>
      <trkpt lat="48.13264" lon="6.86057">
        <ele>742</ele>
      </trkpt>
      <trkpt lat="48.13281" lon="6.86083">
        <ele>742</ele>
      </trkpt>
      <trkpt lat="48.13315" lon="6.86146">
        <ele>737</ele>
      </trkpt>
      <trkpt lat="48.1333" lon="6.86143">
        <ele>736</ele>
      </trkpt>
      <trkpt lat="48.13368" lon="6.86115">
        <ele>732</ele>
      </trkpt>
      <trkpt lat="48.13403" lon="6.86109">
        <ele>727</ele>
      </trkpt>
      <trkpt lat="48.13425" lon="6.86098">
        <ele>724</ele>
      </trkpt>
      <trkpt lat="48.13461" lon="6.86073">
        <ele>719</ele>
      </trkpt>
      <trkpt lat="48.13489" lon="6.86061">
        <ele>715</ele>
      </trkpt>
      <trkpt lat="48.13512" lon="6.86086">
        <ele>707</ele>
      </trkpt>
      <trkpt lat="48.13508" lon="6.86112">
        <ele>705</ele>
      </trkpt>
      <trkpt lat="48.13512" lon="6.86135">
        <ele>702</ele>
      </trkpt>
      <trkpt lat="48.13525" lon="6.86175">
        <ele>698</ele>
      </trkpt>
      <trkpt lat="48.13532" lon="6.86197">
        <ele>697</ele>
      </trkpt>
      <trkpt lat="48.1355" lon="6.86223">
        <ele>694</ele>
      </trkpt>
      <trkpt lat="48.13555" lon="6.86267">
        <ele>689</ele>
      </trkpt>
      <trkpt lat="48.13557" lon="6.86315">
        <ele>683</ele>
      </trkpt>
      <trkpt lat="48.13529" lon="6.86412">
        <ele>672</ele>
      </trkpt>
      <trkpt lat="48.13527" lon="6.86438">
        <ele>672</ele>
      </trkpt>
      <trkpt lat="48.13575" lon="6.86491">
        <ele>671</ele>
      </trkpt>
      <trkpt lat="48.13585" lon="6.86531">
        <ele>669</ele>
      </trkpt>
      <trkpt lat="48.13595" lon="6.86553">
        <ele>668</ele>
      </trkpt>
      <trkpt lat="48.13628" lon="6.86557">
        <ele>669</ele>
      </trkpt>
      <trkpt lat="48.13669" lon="6.86544">
        <ele>671</ele>
      </trkpt>
      <trkpt lat="48.13716" lon="6.86506">
        <ele>669</ele>
      </trkpt>
      <trkpt lat="48.13746" lon="6.86492">
        <ele>668</ele>
      </trkpt>
      <trkpt lat="48.13784" lon="6.86506">
        <ele>671</ele>
      </trkpt>
      <trkpt lat="48.13803" lon="6.8651">
        <ele>673</ele>
      </trkpt>
      <trkpt lat="48.13884" lon="6.8645">
        <ele>674</ele>
      </trkpt>
      <trkpt lat="48.1396" lon="6.86395">
        <ele>674</ele>
      </trkpt>
      <trkpt lat="48.14049" lon="6.86341">
        <ele>671</ele>
      </trkpt>
      <trkpt lat="48.1417" lon="6.86312">
        <ele>673</ele>
      </trkpt>
      <trkpt lat="48.14217" lon="6.86301">
        <ele>674</ele>
      </trkpt>
      <trkpt lat="48.14243" lon="6.86304">
        <ele>676</ele>
      </trkpt>
      <trkpt lat="48.14276" lon="6.86322">
        <ele>677</ele>
      </trkpt>
      <trkpt lat="48.14322" lon="6.86355">
        <ele>678</ele>
      </trkpt>
      <trkpt lat="48.14357" lon="6.86413">
        <ele>681</ele>
      </trkpt>
      <trkpt lat="48.14399" lon="6.86439">
        <ele>680</ele>
      </trkpt>
      <trkpt lat="48.14446" lon="6.8646">
        <ele>679</ele>
      </trkpt>
      <trkpt lat="48.14506" lon="6.86485">
        <ele>679</ele>
      </trkpt>
      <trkpt lat="48.14569" lon="6.86486">
        <ele>678</ele>
      </trkpt>
      <trkpt lat="48.14623" lon="6.86486">
        <ele>679</ele>
      </trkpt>
      <trkpt lat="48.14693" lon="6.86453">
        <ele>680</ele>
      </trkpt>
      <trkpt lat="48.14732" lon="6.86437">
        <ele>681</ele>
      </trkpt>
      <trkpt lat="48.14765" lon="6.8643">
        <ele>681</ele>
      </trkpt>
      <trkpt lat="48.14785" lon="6.86433">
        <ele>682</ele>
      </trkpt>
      <trkpt lat="48.14804" lon="6.86435">
        <ele>682</ele>
      </trkpt>
      <trkpt lat="48.14822" lon="6.86455">
        <ele>682</ele>
        <time>2018-08-06T11:58:32+02:00</time>
      </trkpt>
    </trkseg>
  </trk>
</gpx>